createdAt,value
2019-04-21T00:00:31.960Z,13.30
2019-04-21T00:03:12.882Z,13.40
2019-04-21T00:05:53.281Z,13.30
2019-04-21T00:08:33.324Z,13.40
2019-04-21T00:11:02.864Z,13.30
2019-04-21T00:13:23.349Z,13.30
2019-04-21T00:15:48.885Z,13.40
2019-04-21T00:18:21.540Z,13.40
2019-04-21T00:20:55.773Z,13.40
2019-04-21T00:23:43.698Z,13.30
2019-04-21T00:26:07.541Z,13.30
2019-04-21T00:28:49.126Z,13.30
2019-04-21T00:31:15.345Z,13.20
2019-04-21T00:33:35.627Z,13.20
2019-04-21T00:36:10.229Z,13.10
2019-04-21T00:39:07.112Z,13.10
2019-04-21T00:41:30.798Z,13.00
2019-04-21T00:43:53.272Z,13.00
2019-04-21T00:46:27.955Z,12.90
2019-04-21T00:49:01.371Z,12.90
2019-04-21T00:51:46.661Z,12.70
2019-04-21T00:54:19.643Z,12.70
2019-04-21T00:56:49.562Z,12.60
2019-04-21T00:59:23.442Z,12.60
2019-04-21T01:01:49.432Z,12.50
2019-04-21T01:04:29.485Z,12.50
2019-04-21T01:06:54.448Z,12.40
2019-04-21T01:09:20.179Z,12.40
2019-04-21T01:12:01.430Z,12.30
2019-04-21T01:14:35.924Z,12.30
2019-04-21T01:17:07.154Z,12.30
2019-04-21T01:19:36.474Z,12.20
2019-04-21T01:21:45.848Z,12.20
2019-04-21T01:24:21.968Z,12.20
2019-04-21T01:26:59.668Z,12.20
2019-04-21T01:29:41.774Z,12.20
2019-04-21T01:32:19.423Z,12.30
2019-04-21T01:34:45.128Z,12.30
2019-04-21T01:37:15.800Z,12.20
2019-04-21T01:39:58.380Z,12.20
2019-04-21T01:42:21.717Z,12.10
2019-04-21T01:44:53.420Z,12.00
2019-04-21T01:47:23.129Z,11.90
2019-04-21T01:49:47.470Z,11.90
2019-04-21T01:52:38.462Z,11.80
2019-04-21T01:55:12.319Z,11.80
2019-04-21T01:57:45.188Z,11.70
2019-04-21T02:00:13.290Z,11.60
2019-04-21T02:02:59.304Z,11.50
2019-04-21T02:05:32.630Z,11.50
2019-04-21T02:07:55.224Z,11.40
2019-04-21T02:10:40.332Z,11.40
2019-04-21T02:13:03.488Z,11.30
2019-04-21T02:18:07.565Z,11.30
2019-04-21T02:20:31.747Z,11.30
2019-04-21T02:23:28.469Z,11.30
2019-04-21T02:25:44.187Z,11.20
2019-04-21T02:28:25.938Z,11.10
2019-04-21T02:31:04.969Z,11.10
2019-04-21T02:36:17.163Z,11.10
2019-04-21T02:38:39.849Z,11.10
2019-04-21T02:40:57.286Z,11.10
2019-04-21T02:43:36.538Z,11.00
2019-04-21T02:46:19.578Z,11.00
2019-04-21T02:48:44.903Z,11.00
2019-04-21T02:54:10.460Z,10.90
2019-04-21T02:56:20.418Z,10.80
2019-04-21T02:59:05.188Z,10.70
2019-04-21T03:07:13.123Z,10.60
2019-04-21T03:12:20.171Z,10.50
2019-04-21T03:14:56.629Z,10.40
2019-04-21T03:29:59.442Z,10.00
2019-04-21T03:37:42.399Z,9.80
2019-04-21T03:45:32.631Z,9.60
2019-04-21T03:47:55.209Z,9.60
2019-04-21T03:50:42.782Z,9.60
2019-04-21T03:53:03.009Z,9.60
2019-04-21T04:04:00.550Z,9.60
2019-04-21T04:06:20.492Z,9.50
2019-04-21T04:09:06.357Z,9.50
2019-04-21T04:14:04.108Z,9.50
2019-04-21T04:16:28.996Z,9.40
2019-04-21T04:18:57.871Z,9.40
2019-04-21T04:21:37.571Z,9.30
2019-04-21T04:24:09.026Z,9.30
2019-04-21T04:26:42.886Z,9.30
2019-04-21T04:31:53.186Z,9.20
2019-04-21T04:34:16.749Z,9.20
2019-04-21T04:36:57.879Z,9.20
2019-04-21T04:39:36.237Z,9.10
2019-04-21T04:42:06.881Z,9.10
2019-04-21T04:47:10.327Z,9.10
2019-04-21T04:57:41.165Z,8.90
2019-04-21T05:04:59.237Z,8.90
2019-04-21T05:07:23.472Z,8.90
2019-04-21T05:09:57.655Z,8.90
2019-04-21T05:12:27.082Z,8.90
2019-04-21T05:22:29.050Z,8.90
2019-04-21T05:24:53.783Z,9.00
2019-04-21T05:27:39.238Z,9.00
2019-04-21T05:30:29.101Z,9.10
2019-04-21T05:33:00.274Z,9.20
2019-04-21T05:35:36.928Z,9.20
2019-04-21T05:38:06.008Z,9.20
2019-04-21T05:40:34.766Z,9.30
2019-04-21T05:43:06.241Z,9.40
2019-04-21T05:45:47.620Z,9.40
2019-04-21T05:50:55.489Z,9.60
2019-04-21T05:53:31.406Z,9.60
2019-04-21T05:56:04.898Z,9.60
2019-04-21T05:58:32.939Z,9.70
2019-04-21T06:01:15.126Z,9.70
2019-04-21T06:03:44.699Z,9.80
2019-04-21T06:08:42.269Z,9.90
2019-04-21T06:11:19.186Z,10.00
2019-04-21T06:13:55.131Z,10.00
2019-04-21T06:16:43.011Z,10.10
2019-04-21T06:19:05.046Z,10.20
2019-04-21T06:21:36.005Z,10.30
2019-04-21T06:24:03.761Z,10.30
2019-04-21T06:26:53.746Z,10.40
2019-04-21T06:29:02.989Z,10.50
2019-04-21T06:34:16.648Z,10.60
2019-04-21T06:36:47.021Z,10.70
2019-04-21T06:39:15.397Z,10.80
2019-04-21T06:41:46.807Z,10.90
2019-04-21T06:44:23.958Z,11.00
2019-04-21T06:47:00.863Z,11.10
2019-04-21T06:49:25.061Z,11.20
2019-04-21T06:52:10.912Z,11.30
2019-04-21T06:54:34.206Z,11.40
2019-04-21T06:57:00.720Z,11.50
2019-04-21T06:59:31.889Z,11.60
2019-04-21T07:02:32.132Z,11.70
2019-04-21T07:04:46.501Z,11.80
2019-04-21T07:07:14.138Z,11.90
2019-04-21T07:10:02.600Z,12.00
2019-04-21T07:12:14.168Z,12.10
2019-04-21T07:14:48.216Z,12.30
2019-04-21T07:17:26.889Z,12.40
2019-04-21T07:19:58.438Z,12.50
2019-04-21T07:22:25.015Z,12.60
2019-04-21T07:24:57.049Z,12.80
2019-04-21T07:27:30.252Z,12.90
2019-04-21T07:30:04.322Z,13.00
2019-04-21T07:32:33.680Z,13.10
2019-04-21T07:37:35.395Z,13.20
2019-04-21T07:40:05.582Z,13.40
2019-04-21T07:42:32.536Z,13.50
2019-04-21T07:45:05.275Z,13.60
2019-04-21T07:47:50.780Z,13.70
2019-04-21T07:50:38.237Z,13.80
2019-04-21T07:53:24.325Z,13.90
2019-04-21T07:58:17.773Z,14.10
2019-04-21T08:00:59.032Z,14.20
2019-04-21T08:03:25.025Z,14.30
2019-04-21T08:08:23.320Z,14.40
2019-04-21T08:10:56.786Z,14.50
2019-04-21T08:13:34.654Z,14.60
2019-04-21T08:16:02.891Z,14.80
2019-04-21T08:18:33.518Z,14.90
2019-04-21T08:21:06.169Z,15.00
2019-04-21T08:23:37.127Z,15.10
2019-04-21T08:26:07.764Z,15.20
2019-04-21T08:28:39.141Z,15.30
2019-04-21T08:31:18.417Z,15.40
2019-04-21T08:33:47.027Z,15.60
2019-04-21T08:36:34.135Z,15.80
2019-04-21T08:38:49.630Z,15.90
2019-04-21T08:41:21.307Z,16.00
2019-04-21T08:44:15.107Z,16.10
2019-04-21T08:46:49.043Z,16.30
2019-04-21T08:49:17.355Z,16.30
2019-04-21T08:51:50.436Z,16.40
2019-04-21T08:54:25.006Z,16.40
2019-04-21T08:56:52.635Z,16.50
2019-04-21T08:59:33.954Z,16.60
2019-04-21T09:02:07.656Z,16.60
2019-04-21T09:04:37.800Z,16.70
2019-04-21T09:07:14.455Z,16.70
2019-04-21T09:09:44.502Z,16.80
2019-04-21T09:12:10.611Z,16.80
2019-04-21T09:14:50.478Z,16.90
2019-04-21T09:17:12.130Z,16.90
2019-04-21T09:20:01.804Z,17.00
2019-04-21T09:22:17.804Z,17.10
2019-04-21T09:24:52.561Z,17.10
2019-04-21T09:27:23.237Z,17.20
2019-04-21T09:29:46.655Z,17.30
2019-04-21T09:32:16.571Z,17.30
2019-04-21T09:34:45.261Z,17.30
2019-04-21T09:37:26.599Z,17.40
2019-04-21T09:39:49.966Z,17.40
2019-04-21T09:42:19.791Z,17.50
2019-04-21T09:44:55.617Z,17.50
2019-04-21T09:47:24.894Z,17.60
2019-04-21T09:49:54.550Z,17.60
2019-04-21T09:52:29.274Z,17.70
2019-04-21T09:55:06.169Z,17.70
2019-04-21T09:57:40.539Z,17.80
2019-04-21T10:00:09.029Z,17.80
2019-04-21T10:02:42.781Z,17.90
2019-04-21T10:05:08.328Z,17.90
2019-04-21T10:07:42.133Z,17.90
2019-04-21T10:10:11.044Z,18.00
2019-04-21T10:12:41.300Z,18.00
2019-04-21T10:15:12.388Z,18.00
2019-04-21T10:17:47.453Z,18.10
2019-04-21T10:20:20.162Z,18.10
2019-04-21T10:22:50.944Z,18.10
2019-04-21T10:25:22.811Z,18.10
2019-04-21T10:27:53.045Z,18.20
2019-04-21T10:30:24.590Z,18.20
2019-04-21T10:32:56.440Z,18.20
2019-04-21T10:35:26.892Z,18.30
2019-04-21T10:38:06.740Z,18.40
2019-04-21T10:40:32.058Z,18.40
2019-04-21T10:43:00.938Z,18.50
2019-04-21T10:45:31.182Z,18.50
2019-04-21T10:48:02.941Z,18.50
2019-04-21T10:50:34.806Z,18.50
2019-04-21T10:53:18.959Z,18.50
2019-04-21T10:56:03.134Z,18.50
2019-04-21T10:58:26.575Z,18.60
2019-04-21T11:01:00.041Z,18.60
2019-04-21T11:03:33.185Z,18.70
2019-04-21T11:06:06.539Z,18.80
2019-04-21T11:08:41.498Z,18.80
2019-04-21T11:11:09.997Z,18.80
2019-04-21T11:13:40.963Z,18.90
2019-04-21T11:16:11.382Z,18.90
2019-04-21T11:18:42.144Z,19.00
2019-04-21T11:21:13.337Z,19.00
2019-04-21T11:23:43.940Z,19.00
2019-04-21T11:26:14.324Z,19.10
2019-04-21T11:28:45.264Z,19.10
2019-04-21T11:31:15.880Z,19.20
2019-04-21T11:33:47.125Z,19.20
2019-04-21T11:36:17.512Z,19.20
2019-04-21T11:39:02.379Z,19.20
2019-04-21T11:41:21.683Z,19.30
2019-04-21T11:43:53.097Z,19.30
2019-04-21T11:46:24.494Z,19.40
2019-04-21T11:48:54.967Z,19.50
2019-04-21T11:51:27.451Z,19.50
2019-04-21T11:53:59.167Z,19.60
2019-04-21T11:56:30.527Z,19.60
2019-04-21T11:59:01.704Z,19.70
2019-04-21T12:01:33.705Z,19.70
2019-04-21T12:04:05.482Z,19.70
2019-04-21T12:06:43.110Z,19.70
2019-04-21T12:09:09.528Z,19.70
2019-04-21T12:11:41.133Z,19.70
2019-04-21T12:14:12.087Z,19.80
2019-04-21T12:16:43.293Z,19.80
2019-04-21T12:19:14.560Z,19.90
2019-04-21T12:21:53.479Z,20.00
2019-04-21T12:24:17.406Z,20.00
2019-04-21T12:26:47.819Z,20.00
2019-04-21T12:29:18.910Z,20.00
2019-04-21T12:32:07.590Z,20.00
2019-04-21T12:34:39.594Z,20.10
2019-04-21T12:37:10.929Z,20.10
2019-04-21T12:39:41.343Z,20.20
2019-04-21T12:42:12.354Z,20.30
2019-04-21T12:44:43.419Z,20.30
2019-04-21T12:47:14.141Z,20.40
2019-04-21T12:49:45.604Z,20.40
2019-04-21T12:52:16.076Z,20.40
2019-04-21T12:54:46.361Z,20.40
2019-04-21T12:57:17.158Z,20.50
2019-04-21T12:59:48.497Z,20.60
2019-04-21T13:02:19.869Z,20.60
2019-04-21T13:04:52.203Z,20.70
2019-04-21T13:07:23.495Z,20.70
2019-04-21T13:09:54.609Z,20.80
2019-04-21T13:12:24.976Z,20.80
2019-04-21T13:14:57.416Z,20.90
2019-04-21T13:17:27.774Z,20.80
2019-04-21T13:19:59.065Z,20.80
2019-04-21T13:22:30.048Z,20.80
2019-04-21T13:25:00.331Z,20.80
2019-04-21T13:27:30.911Z,20.80
2019-04-21T13:30:02.226Z,20.80
2019-04-21T13:32:33.192Z,20.80
2019-04-21T13:35:05.373Z,20.90
2019-04-21T13:37:35.601Z,20.90
2019-04-21T13:40:29.166Z,20.90
2019-04-21T13:42:51.265Z,20.90
2019-04-21T13:45:18.338Z,21.00
2019-04-21T13:47:48.656Z,21.00
2019-04-21T13:50:19.304Z,21.00
2019-04-21T13:52:51.043Z,21.00
2019-04-21T13:55:21.438Z,21.00
2019-04-21T13:57:52.521Z,21.10
2019-04-21T14:00:24.095Z,21.20
2019-04-21T14:02:54.612Z,21.10
2019-04-21T14:05:26.421Z,21.20
2019-04-21T14:07:58.046Z,21.20
2019-04-21T14:10:29.211Z,21.20
2019-04-21T14:13:00.486Z,21.20
2019-04-21T14:15:30.766Z,21.30
2019-04-21T14:18:01.041Z,21.30
2019-04-21T14:20:31.269Z,21.40
2019-04-21T14:23:13.746Z,21.40
2019-04-21T14:25:35.506Z,21.40
2019-04-21T14:28:06.107Z,21.50
2019-04-21T14:30:36.642Z,21.50
2019-04-21T14:33:07.909Z,21.60
2019-04-21T14:35:38.917Z,21.60
2019-04-21T14:38:10.760Z,21.60
2019-04-21T14:40:41.998Z,21.70
2019-04-21T14:43:12.417Z,21.70
2019-04-21T14:45:54.740Z,21.80
2019-04-21T14:48:45.377Z,21.80
2019-04-21T14:51:41.383Z,21.90
2019-04-21T14:54:28.847Z,22.00
2019-04-21T14:56:59.185Z,22.00
2019-04-21T14:59:31.004Z,22.10
2019-04-21T15:02:02.213Z,22.30
2019-04-21T15:04:33.353Z,22.40
2019-04-21T15:07:05.468Z,22.60
2019-04-21T15:09:38.940Z,22.80
2019-04-21T15:12:08.025Z,23.00
2019-04-21T15:14:38.252Z,23.20
2019-04-21T15:17:09.086Z,23.30
2019-04-21T15:19:42.864Z,23.40
2019-04-21T15:22:12.337Z,24.00
2019-04-21T15:24:42.738Z,26.00
2019-04-21T15:27:14.443Z,29.20
2019-04-21T15:29:44.980Z,32.70
2019-04-21T15:32:16.803Z,35.80
2019-04-21T15:34:47.857Z,38.30
2019-04-21T15:37:18.153Z,40.10
2019-04-21T15:39:48.823Z,41.30
2019-04-21T15:42:19.168Z,42.20
2019-04-21T15:44:50.486Z,42.80
2019-04-21T15:47:21.944Z,42.40
2019-04-21T15:50:02.900Z,42.50
2019-04-21T15:52:28.156Z,42.90
2019-04-21T15:55:05.827Z,42.70
2019-04-21T15:57:47.083Z,40.50
2019-04-21T16:00:20.583Z,38.20
2019-04-21T16:02:50.906Z,37.50
2019-04-21T16:05:22.511Z,38.50
2019-04-21T16:07:54.106Z,39.60
2019-04-21T16:10:34.397Z,40.50
2019-04-21T16:12:58.016Z,39.80
2019-04-21T16:15:28.452Z,37.30
2019-04-21T16:17:59.370Z,34.60
2019-04-21T16:20:30.024Z,32.40
2019-04-21T16:23:00.401Z,30.60
2019-04-21T16:25:30.826Z,29.40
2019-04-21T16:28:01.517Z,28.60
2019-04-21T16:30:31.968Z,28.10
2019-04-21T16:33:02.184Z,27.60
2019-04-21T16:35:33.817Z,26.90
2019-04-21T16:38:05.951Z,26.50
2019-04-21T16:40:46.523Z,26.20
2019-04-21T16:43:08.407Z,25.80
2019-04-21T16:45:39.115Z,25.30
2019-04-21T16:48:09.582Z,25.30
2019-04-21T16:50:39.827Z,25.30
2019-04-21T16:53:12.230Z,25.20
2019-04-21T16:55:44.951Z,25.00
2019-04-21T16:58:23.090Z,24.50
2019-04-21T17:00:59.731Z,23.90
2019-04-21T17:03:22.595Z,23.40
2019-04-21T17:05:54.014Z,23.00
2019-04-21T17:08:24.465Z,22.60
2019-04-21T17:11:03.065Z,22.30
2019-04-21T17:13:27.210Z,22.00
2019-04-21T17:16:16.698Z,21.70
2019-04-21T17:18:44.648Z,21.50
2019-04-21T17:21:03.111Z,21.30
2019-04-21T17:23:33.600Z,21.20
2019-04-21T17:26:03.848Z,21.00
2019-04-21T17:28:36.337Z,20.80
2019-04-21T17:31:06.920Z,20.70
2019-04-21T17:33:37.172Z,20.60
2019-04-21T17:36:09.108Z,20.40
2019-04-21T17:38:39.780Z,20.30
2019-04-21T17:41:21.901Z,20.30
2019-04-21T17:43:43.646Z,20.10
2019-04-21T17:46:23.046Z,20.00
2019-04-21T17:48:47.189Z,19.90
2019-04-21T17:51:27.528Z,19.80
2019-04-21T17:54:13.686Z,19.70
2019-04-21T17:57:07.567Z,19.60
2019-04-21T18:02:02.361Z,19.40
2019-04-21T18:04:37.532Z,19.20
2019-04-21T18:07:15.229Z,19.10
2019-04-21T18:10:02.101Z,19.00
2019-04-21T18:12:32.235Z,18.90
2019-04-21T18:14:54.152Z,18.80
2019-04-21T18:17:16.506Z,18.60
2019-04-21T18:19:49.214Z,18.50
2019-04-21T18:22:31.060Z,18.50
2019-04-21T18:25:05.709Z,18.40
2019-04-21T18:27:29.854Z,18.30
2019-04-21T18:30:06.340Z,18.20
2019-04-21T18:32:39.745Z,18.10
2019-04-21T18:35:17.745Z,18.00
2019-04-21T18:38:03.519Z,17.90
2019-04-21T18:40:33.019Z,17.90
2019-04-21T18:43:43.224Z,17.80
2019-04-21T18:46:06.912Z,17.70
2019-04-21T18:48:24.565Z,17.70
2019-04-21T18:51:02.486Z,17.60
2019-04-21T18:53:44.784Z,17.50
2019-04-21T18:56:07.416Z,17.50
2019-04-21T18:58:36.132Z,17.40
2019-04-21T19:01:12.750Z,17.30
2019-04-21T19:03:43.068Z,17.20
2019-04-21T19:06:16.598Z,17.20
2019-04-21T19:09:21.555Z,17.10
2019-04-21T19:11:53.044Z,17.10
2019-04-21T19:17:29.221Z,16.90
2019-04-21T19:19:46.481Z,16.90
2019-04-21T19:22:20.492Z,16.80
2019-04-21T19:24:46.582Z,16.80
2019-04-21T19:29:55.260Z,16.70
2019-04-21T19:32:22.819Z,16.60
2019-04-21T19:34:34.781Z,16.60
2019-04-21T19:37:10.871Z,16.50
2019-04-21T19:39:48.895Z,16.50
2019-04-21T19:42:16.932Z,16.40
2019-04-21T19:44:56.693Z,16.40
2019-04-21T19:47:35.194Z,16.40
2019-04-21T19:50:00.412Z,16.30
2019-04-21T19:52:26.557Z,16.20
2019-04-21T19:54:50.384Z,16.20
2019-04-21T19:57:18.840Z,16.10
2019-04-21T19:59:53.861Z,16.00
2019-04-21T20:02:20.989Z,16.00
2019-04-21T20:04:57.729Z,15.90
2019-04-21T20:07:41.474Z,15.90
2019-04-21T20:10:14.450Z,15.80
2019-04-21T20:12:47.508Z,15.80
2019-04-21T20:15:26.043Z,15.70
2019-04-21T20:17:48.330Z,15.70
2019-04-21T20:20:04.060Z,15.60
2019-04-21T20:22:41.354Z,15.60
2019-04-21T20:25:12.524Z,15.60
2019-04-21T20:27:49.352Z,15.50
2019-04-21T20:30:31.085Z,15.50
2019-04-21T20:33:11.622Z,15.40
2019-04-21T20:35:48.580Z,15.40
2019-04-21T20:38:01.785Z,15.30
2019-04-21T20:40:33.373Z,15.30
2019-04-21T20:43:16.665Z,15.30
2019-04-21T20:45:46.057Z,15.20
2019-04-21T20:48:07.802Z,15.20
2019-04-21T20:50:43.500Z,15.20
2019-04-21T20:53:25.087Z,15.10
2019-04-21T20:55:48.119Z,15.10
2019-04-21T20:58:26.447Z,15.00
2019-04-21T21:01:08.750Z,15.00
2019-04-21T21:03:34.030Z,15.00
2019-04-21T21:05:53.191Z,14.90
2019-04-21T21:08:35.769Z,14.90
2019-04-21T21:11:02.355Z,14.80
2019-04-21T21:13:39.468Z,14.80
2019-04-21T21:16:13.861Z,14.80
2019-04-21T21:18:56.521Z,14.70
2019-04-21T21:21:11.614Z,14.70
2019-04-21T21:23:44.011Z,14.70
2019-04-21T21:26:21.856Z,14.60
2019-04-21T21:28:43.228Z,14.60
2019-04-21T21:31:25.298Z,14.60
2019-04-21T21:36:27.526Z,14.50
2019-04-21T21:38:59.862Z,14.40
2019-04-21T21:41:38.564Z,14.40
2019-04-21T21:44:10.740Z,14.30
2019-04-21T21:46:48.293Z,14.30
2019-04-21T21:49:32.639Z,14.20
2019-04-21T21:51:52.858Z,14.20
2019-04-21T21:54:13.912Z,14.20
2019-04-21T21:56:44.708Z,14.10
2019-04-21T21:59:20.652Z,14.10
2019-04-21T22:01:51.970Z,14.10
2019-04-21T22:04:26.142Z,14.00
2019-04-21T22:06:59.906Z,14.00
2019-04-21T22:09:24.243Z,14.00
2019-04-21T22:11:57.905Z,14.00
2019-04-21T22:14:34.066Z,13.90
2019-04-21T22:17:16.175Z,14.00
2019-04-21T22:19:54.037Z,13.90
2019-04-21T22:22:20.733Z,13.90
2019-04-21T22:24:49.758Z,13.80
2019-04-21T22:27:07.431Z,13.80
2019-04-21T22:29:41.722Z,13.80
2019-04-21T22:32:15.852Z,13.70
2019-04-21T22:34:48.680Z,13.70
2019-04-21T22:37:30.267Z,13.70
2019-04-21T22:40:02.142Z,13.70
2019-04-21T22:42:26.690Z,13.70
2019-04-21T22:44:50.368Z,13.60
2019-04-21T22:47:26.967Z,13.60
2019-04-21T22:49:52.817Z,13.50
2019-04-21T22:52:26.397Z,13.50
2019-04-21T22:54:55.994Z,13.50
2019-04-21T22:57:28.911Z,13.50
2019-04-21T23:00:03.116Z,13.40
2019-04-21T23:02:33.511Z,13.40
2019-04-21T23:05:03.969Z,13.40
2019-04-21T23:07:44.198Z,13.30
2019-04-21T23:10:09.360Z,13.30
2019-04-21T23:12:42.063Z,13.30
2019-04-21T23:15:17.307Z,13.20
2019-04-21T23:18:00.544Z,13.20
2019-04-21T23:20:39.396Z,13.10
2019-04-21T23:23:15.346Z,13.10
2019-04-21T23:25:39.119Z,13.10
2019-04-21T23:28:09.073Z,13.00
2019-04-21T23:30:50.012Z,13.00
2019-04-21T23:33:04.918Z,12.90
2019-04-21T23:35:35.191Z,12.90
2019-04-21T23:38:04.745Z,12.90
2019-04-21T23:40:33.336Z,12.90
2019-04-21T23:43:09.277Z,12.80
2019-04-21T23:45:38.195Z,12.80
2019-04-21T23:48:18.689Z,12.80
2019-04-21T23:50:50.468Z,12.80
2019-04-21T23:53:11.294Z,12.70
2019-04-21T23:55:41.516Z,12.70
2019-04-21T23:58:18.654Z,12.70
